Time;durP1;ratioP1;P1;durP2;ratioP2;P2;SDS_P1;SDS_P2;PMS_P1;PMS_P2;Temp;Humidity;BMP_temperature;BMP_pressure;BME280_temperature;BME280_humidity;BME280_pressure;Samples;Min_cycle;Max_cycle;Signal;HPM_P1;HPM_P2
2021/08/25 13:15:15;;;;;;;18.70;4.83;;;;;;;19.36;46.21;98975.66;2241336;79;22499;-64
2021/08/25 13:20:54;;;;;;;17.05;4.75;;;;;;;19.11;48.38;98974.50;2270802;77;22949;-68
2021/08/25 13:23:55;;;;;;;17.20;4.58;;;;;;;18.99;48.70;98977.83;2248953;78;21410;-68
2021/08/25 13:26:55;;;;;;;18.25;5.10;;;;;;;18.69;47.74;98973.02;2256676;77;21529;-69
2021/08/25 13:29:56;;;;;;;17.95;4.53;;;;;;;18.76;47.24;98961.34;2220728;79;20922;-66
2021/08/25 13:32:58;;;;;;;17.37;5.20;;;;;;;19.35;46.96;98954.53;2195889;79;21014;-68
2021/08/25 13:35:58;;;;;;;15.53;4.50;;;;;;;19.61;46.01;98952.05;2228699;78;21024;-67
2021/08/25 13:38:59;;;;;;;17.23;4.85;;;;;;;19.22;48.26;98941.56;2268608;77;21223;-68
2021/08/25 13:41:59;;;;;;;17.52;4.40;;;;;;;18.91;47.99;98957.77;2238717;78;20996;-66
2021/08/25 13:45:01;;;;;;;16.20;4.40;;;;;;;18.53;47.70;98953.69;2257430;77;21026;-68
2021/08/25 14:02:28;;;;;;;16.55;4.53;;;;;;;19.06;47.40;98914.28;2296082;77;22917;-64
2021/08/25 14:05:29;;;;;;;15.05;4.30;;;;;;;18.97;48.65;98920.48;2247054;79;20956;-65
2021/08/25 14:08:29;;;;;;;14.60;4.22;;;;;;;18.65;46.49;98913.69;2245797;79;20948;-64
2021/08/25 14:11:30;;;;;;;14.95;3.98;;;;;;;18.70;48.57;98913.61;2246761;79;20935;-64
2021/08/25 14:14:30;;;;;;;19.02;4.80;;;;;;;18.83;47.45;98901.81;2244820;79;22270;-64
2021/08/25 14:17:31;;;;;;;16.85;4.78;;;;;;;18.61;46.68;98901.67;2200781;80;20972;-66
2021/08/25 14:20:31;;;;;;;16.87;4.67;;;;;;;18.48;46.78;98897.48;2197552;81;21052;-66
2021/08/25 14:23:31;;;;;;;18.12;5.05;;;;;;;18.78;47.05;98899.59;2197123;81;21048;-66
2021/08/25 14:26:33;;;;;;;18.67;5.00;;;;;;;19.18;46.19;98891.02;2196223;80;21029;-66
2021/08/25 14:29:34;;;;;;;18.95;5.35;;;;;;;19.53;46.19;98891.58;2196288;81;21530;-67
2021/08/25 14:32:34;;;;;;;20.23;4.90;;;;;;;19.35;45.90;98882.25;2196158;81;21028;-66
2021/08/25 14:35:35;;;;;;;17.92;4.90;;;;;;;19.65;46.10;98881.59;2196322;81;21048;-67
2021/08/25 14:38:35;;;;;;;17.92;5.25;;;;;;;20.02;46.37;98876.62;2196875;81;20962;-67
2021/08/25 14:41:36;;;;;;;16.82;5.00;;;;;;;19.74;44.35;98878.02;2197659;80;20962;-67
2021/08/25 14:44:36;;;;;;;16.52;4.85;;;;;;;19.49;45.35;98870.25;2197327;81;20986;-67
2021/08/25 14:47:37;;;;;;;18.52;4.95;;;;;;;19.03;45.29;98866.22;2197664;81;21510;-67
2021/08/25 14:50:37;;;;;;;16.97;4.90;;;;;;;18.88;45.45;98869.04;2197626;81;21031;-67
2021/08/25 14:53:38;;;;;;;20.08;5.30;;;;;;;18.71;46.62;98867.94;2197535;80;21016;-67
2021/08/25 14:56:40;;;;;;;18.73;5.12;;;;;;;18.47;46.54;98861.28;2197806;81;20978;-67
2021/08/25 14:59:40;;;;;;;17.35;5.00;;;;;;;18.73;48.50;98851.86;2197535;81;21101;-67
2021/08/25 15:02:41;;;;;;;17.87;4.78;;;;;;;19.23;46.03;98847.53;2197355;81;21600;-66
2021/08/25 15:05:42;;;;;;;19.45;5.15;;;;;;;19.55;46.60;98844.88;2197487;80;21025;-67
2021/08/25 15:08:42;;;;;;;18.15;5.03;;;;;;;19.82;45.44;98836.53;2197734;80;21016;-67
2021/08/25 15:11:43;;;;;;;19.23;5.00;;;;;;;20.00;44.99;98827.22;2197557;80;20990;-67
2021/08/25 15:14:43;;;;;;;19.05;5.28;;;;;;;20.25;44.11;98818.91;2162733;82;20986;-67
2021/08/25 15:17:44;;;;;;;19.07;5.05;;;;;;;20.40;44.14;98808.50;2197601;80;21503;-67
2021/08/25 15:20:44;;;;;;;19.00;5.12;;;;;;;20.79;45.40;98808.10;2197112;80;20985;-67
2021/08/25 15:23:44;;;;;;;22.80;5.55;;;;;;;21.23;42.17;98811.08;2162247;82;20998;-67
2021/08/25 15:26:45;;;;;;;17.87;5.33;;;;;;;21.86;39.75;98813.71;2197805;81;21060;-67
2021/08/25 15:29:45;;;;;;;18.17;5.45;;;;;;;22.43;40.21;98802.69;2197805;80;21021;-67
2021/08/25 15:32:46;;;;;;;16.27;4.97;;;;;;;23.34;39.34;98790.63;2162359;82;21022;-67
2021/08/25 15:35:46;;;;;;;19.60;5.30;;;;;;;23.84;36.90;98794.30;2197829;81;21515;-67
2021/08/25 15:38:47;;;;;;;16.60;5.43;;;;;;;25.00;35.93;98775.23;2197836;80;21017;-67
2021/08/25 15:41:47;;;;;;;17.03;5.30;;;;;;;25.50;37.41;98773.53;2162170;82;20997;-68
2021/08/25 15:44:47;;;;;;;15.77;5.03;;;;;;;26.60;32.67;98772.63;2162469;82;21060;-67
2021/08/25 15:47:48;;;;;;;19.17;5.53;;;;;;;26.18;33.08;98771.76;2162334;82;20997;-68
2021/08/25 15:50:48;;;;;;;17.20;5.23;;;;;;;26.15;32.65;98765.92;2162268;82;21080;-68
2021/08/25 15:53:49;;;;;;;17.40;5.43;;;;;;;27.03;32.24;98766.77;2162188;82;21537;-66
2021/08/25 15:56:50;;;;;;;17.45;5.47;;;;;;;27.32;32.19;98760.20;2161760;82;21120;-66
2021/08/25 15:59:51;;;;;;;17.03;5.17;;;;;;;27.82;32.08;98758.55;2162188;82;20989;-66
2021/08/25 16:02:51;;;;;;;18.17;5.53;;;;;;;28.24;31.60;98753.77;2196549;81;21025;-66
2021/08/25 16:05:52;;;;;;;18.40;5.50;;;;;;;28.60;31.22;98748.91;2148190;83;20971;-65
2021/08/25 16:08:52;;;;;;;17.93;5.70;;;;;;;28.69;30.49;98745.80;2131606;83;21099;-66
2021/08/25 16:11:53;;;;;;;19.20;5.53;;;;;;;29.20;30.01;98741.39;2131711;83;21014;-65
2021/08/25 16:14:53;;;;;;;15.95;5.08;;;;;;;29.62;29.60;98740.94;2131485;83;21492;-65
2021/08/25 16:17:54;;;;;;;17.85;5.25;;;;;;;29.58;29.05;98738.37;2144861;83;21041;-65
2021/08/25 16:20:54;;;;;;;21.50;6.97;;;;;;;29.60;30.26;98733.59;2144593;82;21117;-65
2021/08/25 16:23:55;;;;;;;17.45;5.50;;;;;;;30.48;29.50;98729.61;2145254;83;20989;-65
2021/08/25 16:26:55;;;;;;;17.10;5.80;;;;;;;30.73;27.96;98729.50;2145036;83;21052;-65
2021/08/25 16:29:56;;;;;;;20.37;6.12;;;;;;;30.60;28.76;98724.27;2145199;82;21040;-66
2021/08/25 16:32:56;;;;;;;17.50;5.40;;;;;;;31.06;28.63;98722.86;2144909;83;21024;-65
2021/08/25 16:35:58;;;;;;;16.55;5.50;;;;;;;31.53;28.30;98721.64;2118134;83;21065;-65
2021/08/25 16:38:59;;;;;;;17.62;5.47;;;;;;;31.84;28.53;98719.72;2145119;83;21499;-65
2021/08/25 16:41:59;;;;;;;18.17;5.67;;;;;;;31.61;27.42;98723.23;2144905;83;21421;-65
2021/08/25 16:45:00;;;;;;;16.12;5.28;;;;;;;30.15;27.66;98718.59;2144914;83;20970;-66
2021/08/25 16:48:00;;;;;;;24.93;8.07;;;;;;;28.81;28.94;98715.45;2144854;83;21040;-65
2021/08/25 16:51:01;;;;;;;17.48;5.35;;;;;;;28.98;30.12;98710.39;2144968;83;20993;-65
2021/08/25 16:54:01;;;;;;;15.80;5.33;;;;;;;29.31;29.54;98704.81;2145085;83;21004;-66
2021/08/25 16:57:03;;;;;;;24.10;8.10;;;;;;;29.49;29.58;98702.69;2145082;83;21021;-66
2021/08/25 17:00:03;;;;;;;18.12;5.45;;;;;;;29.03;30.40;98693.86;2144829;83;20965;-65
2021/08/25 17:03:05;;;;;;;27.52;9.43;;;;;;;28.91;30.29;98683.96;2144405;83;21547;-67
2021/08/25 17:06:05;;;;;;;43.17;15.20;;;;;;;28.97;30.52;98679.04;2144620;83;21018;-66
2021/08/25 17:09:06;;;;;;;25.80;8.17;;;;;;;28.67;31.08;98672.33;2145045;82;21033;-67
2021/08/25 17:12:06;;;;;;;25.73;8.13;;;;;;;27.73;32.46;98681.14;2144968;83;20978;-65
2021/08/25 17:15:07;;;;;;;26.53;8.77;;;;;;;26.43;33.85;98674.50;2144976;83;21003;-65
2021/08/25 17:18:07;;;;;;;30.90;9.73;;;;;;;24.85;35.59;98674.14;2145003;83;21029;-65
2021/08/25 17:21:08;;;;;;;28.90;9.53;;;;;;;24.09;36.74;98678.41;2145072;83;20992;-66
2021/08/25 17:24:08;;;;;;;26.63;9.40;;;;;;;23.44;37.52;98669.97;2145054;83;21021;-65
2021/08/25 17:27:09;;;;;;;28.07;11.30;;;;;;;22.69;38.71;98672.80;2145094;83;21020;-65
2021/08/25 17:30:11;;;;;;;27.03;9.70;;;;;;;22.03;39.67;98671.69;2145046;83;21000;-66
2021/08/25 17:33:12;;;;;;;;;;;;;;;21.18;40.92;98666.23;2147407;83;21587;-65
2021/08/25 17:36:13;;;;;;;25.90;10.43;;;;;;;20.06;42.59;98673.02;2144997;83;20132;-68
2021/08/25 17:39:13;;;;;;;26.27;10.60;;;;;;;19.12;43.70;98670.48;2144934;83;21479;-65
2021/08/25 17:42:14;;;;;;;23.63;9.10;;;;;;;18.44;45.09;98673.54;2144971;83;21037;-65
2021/08/25 17:45:14;;;;;;;26.27;9.80;;;;;;;17.83;46.58;98673.88;2144879;83;21049;-65
2021/08/25 17:48:16;;;;;;;24.07;9.45;;;;;;;17.22;47.82;98668.43;2144380;83;21543;-65
2021/08/25 17:51:17;;;;;;;24.02;8.80;;;;;;;16.68;49.09;98671.06;2144603;83;21057;-64
2021/08/25 17:54:18;;;;;;;25.52;9.05;;;;;;;16.20;50.38;98676.57;2144963;82;20977;-66
2021/08/25 17:57:18;;;;;;;26.42;10.53;;;;;;;15.73;51.30;98671.70;2144976;83;21024;-64
2021/08/25 18:03:22;;;;;;;27.07;10.50;;;;;;;14.95;53.24;98668.00;2122475;83;21096;-64
2021/08/25 18:06:23;;;;;;;74.20;54.60;;;;;;;14.63;53.96;98671.94;2148259;83;21540;-63
2021/08/25 18:09:23;;;;;;;114.95;97.62;;;;;;;14.34;54.84;98671.94;2148207;83;21017;-64
2021/08/25 18:12:24;;;;;;;85.22;58.58;;;;;;;14.05;55.41;98668.96;2148061;83;21083;-63
2021/08/25 18:15:25;;;;;;;70.90;42.17;;;;;;;13.79;56.35;98667.00;2148457;83;20977;-63
2021/08/25 18:18:25;;;;;;;43.02;21.70;;;;;;;13.53;57.09;98661.92;2148348;83;20997;-64
2021/08/25 18:21:26;;;;;;;26.75;10.98;;;;;;;13.30;57.51;98659.22;2148333;82;21482;-65
2021/08/25 18:24:26;;;;;;;24.35;9.00;;;;;;;13.13;58.31;98649.94;2148231;83;20997;-65
2021/08/25 18:27:27;;;;;;;26.80;9.48;;;;;;;12.98;58.72;98657.16;2148189;83;21028;-65
2021/08/25 18:30:27;;;;;;;32.83;9.53;;;;;;;12.85;58.77;98656.88;2148382;83;20993;-63
2021/08/25 18:33:28;;;;;;;27.70;9.58;;;;;;;12.77;59.28;98647.75;2148429;83;20973;-63
2021/08/25 18:36:28;;;;;;;24.35;9.23;;;;;;;12.73;59.54;98653.32;2148376;83;20989;-65
2021/08/25 18:39:29;;;;;;;27.42;9.40;;;;;;;12.54;60.30;98650.73;2148251;82;21550;-64
2021/08/25 18:42:29;;;;;;;29.98;12.07;;;;;;;12.39;60.74;98650.51;2148430;82;21483;-65
2021/08/25 18:45:30;;;;;;;28.90;10.88;;;;;;;12.25;60.99;98649.67;2148416;83;21035;-66
2021/08/25 18:48:31;;;;;;;35.23;12.43;;;;;;;12.11;61.47;98641.47;2148511;83;21076;-67
2021/08/25 18:51:31;;;;;;;47.75;19.60;;;;;;;12.04;62.09;98638.91;2148167;83;21069;-67
2021/08/25 18:54:31;;;;;;;101.72;51.83;;;;;;;11.98;61.99;98643.73;2148652;83;21045;-66
2021/08/25 18:57:32;;;;;;;46.33;17.90;;;;;;;11.92;62.41;98635.77;2148414;83;20954;-66
2021/08/25 19:00:32;;;;;;;30.45;12.78;;;;;;;11.84;62.59;98632.83;2148498;83;20954;-65
2021/08/25 19:03:33;;;;;;;31.20;10.58;;;;;;;11.73;63.09;98629.64;2148972;82;21495;-66
2021/08/25 19:06:33;;;;;;;28.70;12.25;;;;;;;11.61;63.58;98630.84;2148989;83;21532;-66
2021/08/25 19:09:34;;;;;;;29.60;11.20;;;;;;;11.51;63.79;98624.55;2149091;83;21040;-65
2021/08/25 19:12:34;;;;;;;25.88;9.00;;;;;;;11.41;64.04;98620.38;2200494;81;20976;-65
2021/08/25 19:15:34;;;;;;;28.98;10.45;;;;;;;11.34;64.46;98618.29;2200755;81;20957;-66
2021/08/25 19:18:35;;;;;;;24.95;9.35;;;;;;;11.26;64.45;98611.77;2200601;80;20961;-67
2021/08/25 19:21:36;;;;;;;26.37;9.53;;;;;;;11.13;64.75;98613.52;2200514;80;20965;-66
2021/08/25 19:24:36;;;;;;;27.48;10.70;;;;;;;11.07;65.15;98609.99;2158536;82;21442;-67
2021/08/25 19:27:36;;;;;;;28.95;10.10;;;;;;;10.98;65.33;98602.74;2135387;83;21472;-65
2021/08/25 19:30:37;;;;;;;26.25;9.73;;;;;;;10.88;65.50;98602.02;2135180;83;21093;-65
2021/08/25 19:33:37;;;;;;;37.08;14.38;;;;;;;10.81;65.95;98595.98;2135219;83;20990;-66
2021/08/25 19:36:38;;;;;;;29.55;12.85;;;;;;;10.78;66.43;98596.19;2135485;83;21022;-67
2021/08/25 19:39:38;;;;;;;43.98;20.23;;;;;;;10.75;66.59;98595.91;2135342;83;21045;-67
2021/08/25 19:42:39;;;;;;;38.75;16.73;;;;;;;10.66;66.59;98596.04;2135367;83;21017;-66
2021/08/25 19:45:39;;;;;;;35.43;15.58;;;;;;;10.61;66.62;98584.99;2135349;83;20984;-64
2021/08/25 19:48:40;;;;;;;28.40;11.25;;;;;;;10.55;66.81;98582.30;2134884;83;21512;-64
2021/08/25 19:51:41;;;;;;;28.60;10.48;;;;;;;10.46;67.08;98580.28;2135148;83;20990;-65
2021/08/25 19:54:41;;;;;;;27.73;11.10;;;;;;;10.40;67.39;98580.20;2135365;83;21105;-65
2021/08/25 19:57:42;;;;;;;26.40;9.58;;;;;;;10.37;67.88;98577.78;2135153;83;21025;-67
2021/08/25 20:00:42;;;;;;;28.57;10.35;;;;;;;10.32;68.12;98575.88;2135437;83;20998;-65
2021/08/25 20:03:43;;;;;;;27.40;10.38;;;;;;;10.22;67.88;98573.48;2134915;83;21101;-65
2021/08/25 20:06:43;;;;;;;30.95;11.20;;;;;;;10.18;68.34;98566.75;2142671;83;21487;-64
2021/08/25 20:09:43;;;;;;;28.07;9.85;;;;;;;10.12;68.21;98571.08;2142627;83;21528;-64
2021/08/25 20:12:44;;;;;;;26.93;9.58;;;;;;;10.11;68.78;98562.83;2142532;83;20954;-65
2021/08/25 20:15:44;;;;;;;29.98;9.53;;;;;;;10.11;68.77;98562.35;2142531;83;21029;-66
2021/08/25 20:18:45;;;;;;;28.80;10.08;;;;;;;10.13;69.20;98557.01;2142759;83;20938;-67
2021/08/25 20:21:45;;;;;;;30.88;11.40;;;;;;;10.10;69.06;98554.59;2142656;83;20978;-65
2021/08/25 20:24:47;;;;;;;39.00;17.23;;;;;;;10.08;69.20;98546.00;2142455;83;21568;-67
2021/08/25 20:27:47;;;;;;;30.08;11.20;;;;;;;10.01;69.24;98550.77;2142515;83;20990;-67
2021/08/25 20:30:48;;;;;;;27.67;9.80;;;;;;;9.95;69.15;98543.30;2142712;83;21022;-67
2021/08/25 20:33:48;;;;;;;26.07;8.30;;;;;;;9.88;69.79;98538.47;2142645;83;21009;-67
2021/08/25 20:36:48;;;;;;;26.40;8.10;;;;;;;9.82;69.92;98537.52;2142658;83;21001;-64
2021/08/25 20:39:49;;;;;;;24.82;8.33;;;;;;;9.81;70.08;98534.55;2142842;83;20954;-66
2021/08/25 20:42:49;;;;;;;24.43;8.28;;;;;;;9.81;69.93;98541.54;2142628;83;20990;-65
2021/08/25 20:45:50;;;;;;;27.90;10.75;;;;;;;9.78;69.95;98532.09;2142503;83;21500;-66
2021/08/25 20:48:50;;;;;;;28.52;9.80;;;;;;;9.75;70.10;98527.05;2142459;83;21589;-67
2021/08/25 20:51:51;;;;;;;28.55;9.50;;;;;;;9.71;70.47;98525.10;2142270;83;21021;-67
2021/08/25 20:54:52;;;;;;;31.48;10.75;;;;;;;9.71;70.55;98529.03;2142610;83;21068;-65
2021/08/25 20:57:52;;;;;;;45.95;15.48;;;;;;;9.67;70.74;98522.78;2142253;83;21080;-64
2021/08/25 21:00:53;;;;;;;45.38;17.02;;;;;;;9.65;70.91;98517.61;2142445;83;20994;-64
2021/08/25 21:03:54;;;;;;;45.70;17.25;;;;;;;9.65;71.11;98506.30;2196678;80;20978;-65
2021/08/25 21:06:54;;;;;;;43.28;16.70;;;;;;;9.70;71.22;98499.84;2196980;81;20993;-66
2021/08/25 21:09:55;;;;;;;49.63;20.80;;;;;;;9.76;71.12;98498.63;2196774;80;21032;-65
2021/08/25 21:12:55;;;;;;;66.45;28.10;;;;;;;9.76;71.14;98496.48;2196831;81;21507;-64
2021/08/25 21:15:56;;;;;;;43.33;16.93;;;;;;;9.77;71.16;98494.21;2196816;81;21463;-65
2021/08/25 21:18:58;;;;;;;43.60;15.70;;;;;;;9.74;71.26;98489.17;2196809;81;20996;-67
2021/08/25 21:21:58;;;;;;;37.53;13.08;;;;;;;9.70;71.51;98487.23;2180042;81;20958;-65
2021/08/25 21:28:36;;;;;;;26.27;8.73;;;;;;;9.73;72.03;98482.27;2196598;81;21017;-64
2021/08/25 21:31:37;;;;;;;27.00;8.65;;;;;;;9.74;72.14;98476.94;2196793;81;21037;-65
2021/08/25 21:34:37;;;;;;;31.68;10.58;;;;;;;9.79;72.09;98471.40;2196703;81;21459;-66
2021/08/25 21:37:37;;;;;;;35.08;11.40;;;;;;;9.79;72.22;98468.78;2196705;81;20996;-64
2021/08/25 21:40:38;;;;;;;34.18;11.80;;;;;;;9.82;72.42;98462.03;2196654;81;20984;-65
2021/08/25 21:43:38;;;;;;;40.30;14.23;;;;;;;9.82;72.31;98452.39;2196938;81;20969;-65
2021/08/25 21:46:39;;;;;;;35.85;13.68;;;;;;;9.86;72.61;98453.05;2196949;81;20965;-65
2021/08/25 21:49:40;;;;;;;42.50;15.05;;;;;;;9.89;72.54;98452.36;2148182;83;21489;-66
2021/08/25 21:52:41;;;;;;;60.83;23.57;;;;;;;9.93;72.60;98445.16;2131248;83;21104;-64
2021/08/25 21:55:41;;;;;;;52.17;19.75;;;;;;;10.00;72.82;98439.89;2131439;83;21121;-67
2021/08/25 21:58:42;;;;;;;35.40;15.05;;;;;;;10.06;72.67;98433.42;2130953;84;21061;-65
2021/08/25 22:05:20;;;;;;;29.12;11.43;;;;;;;10.14;73.07;98431.15;2127278;83;21069;-65
2021/08/25 22:08:21;;;;;;;32.83;11.90;;;;;;;10.16;72.88;98427.94;2109506;83;21521;-67
2021/08/25 22:11:23;;;;;;;33.15;13.08;;;;;;;10.19;72.86;98425.59;2089698;84;21038;-66
2021/08/25 22:14:23;;;;;;;34.18;12.25;;;;;;;10.25;72.93;98426.49;2109552;84;20991;-64
2021/08/25 22:17:24;;;;;;;36.30;13.50;;;;;;;10.28;73.01;98418.42;2109558;84;21490;-64
2021/08/25 22:20:26;;;;;;;32.88;11.65;;;;;;;10.33;73.04;98406.31;2110098;83;21612;-66
2021/08/25 22:23:28;;;;;;;31.42;12.18;;;;;;;10.36;73.11;98406.99;2109853;83;20979;-65
2021/08/25 22:26:28;;;;;;;34.50;12.28;;;;;;;10.42;73.30;98404.44;2090391;84;21477;-66
2021/08/25 22:29:29;;;;;;;35.23;13.50;;;;;;;10.46;73.15;98401.98;2109575;84;21075;-67
2021/08/25 22:32:29;;;;;;;35.28;14.50;;;;;;;10.53;73.10;98395.38;2109922;83;21035;-65
2021/08/25 22:35:30;;;;;;;37.67;13.72;;;;;;;10.55;73.38;98390.86;2109772;84;21035;-67
2021/08/25 22:38:30;;;;;;;38.10;14.28;;;;;;;10.57;73.10;98386.36;2110149;83;20983;-64
2021/08/25 22:41:30;;;;;;;38.78;14.68;;;;;;;10.65;73.14;98391.56;2109766;84;21458;-67
2021/08/25 22:44:31;;;;;;;34.90;14.95;;;;;;;10.71;73.11;98378.02;2109728;84;21580;-66
2021/08/25 22:47:34;;;;;;;37.28;15.43;;;;;;;10.78;72.92;98373.20;2109678;84;21073;-65
2021/08/25 22:50:34;;;;;;;37.85;15.58;;;;;;;10.83;72.82;98374.56;2090688;84;21038;-67
2021/08/25 22:53:34;;;;;;;39.95;15.80;;;;;;;10.84;72.88;98363.09;2109701;84;21003;-65
2021/08/25 22:56:35;;;;;;;33.08;13.05;;;;;;;10.85;73.20;98360.02;2109760;84;20995;-67
2021/08/25 22:59:35;;;;;;;33.05;13.00;;;;;;;10.89;72.97;98354.93;2109536;84;21003;-66
2021/08/25 23:02:35;;;;;;;34.75;12.70;;;;;;;10.95;73.09;98354.95;2109619;84;20964;-64
2021/08/25 23:05:36;;;;;;;36.60;14.73;;;;;;;11.01;73.08;98348.80;2109560;84;20963;-65
2021/08/25 23:08:36;;;;;;;33.28;12.90;;;;;;;11.06;73.12;98344.09;2109588;84;21529;-66
2021/08/25 23:11:37;;;;;;;38.98;14.10;;;;;;;11.14;73.18;98346.64;2109492;84;20975;-67
2021/08/25 23:14:37;;;;;;;42.27;16.48;;;;;;;11.17;73.13;98339.86;2109626;83;21019;-66
2021/08/25 23:17:38;;;;;;;39.92;15.80;;;;;;;11.21;73.14;98334.75;2109728;84;20951;-65
2021/08/25 23:20:38;;;;;;;40.33;14.07;;;;;;;11.21;73.20;98326.88;2109585;84;20960;-64
2021/08/25 23:23:38;;;;;;;37.70;14.43;;;;;;;11.21;73.09;98322.45;2109845;84;20985;-64
2021/08/25 23:26:39;;;;;;;35.83;13.40;;;;;;;11.25;73.01;98318.66;2109608;84;21493;-64
2021/08/25 23:29:39;;;;;;;35.52;14.13;;;;;;;11.30;73.18;98313.56;2109562;83;21477;-64
2021/08/25 23:32:40;;;;;;;38.83;14.38;;;;;;;11.32;73.06;98308.58;2109592;83;20984;-64
2021/08/25 23:35:40;;;;;;;35.48;13.85;;;;;;;11.35;72.92;98304.86;2109487;84;21011;-64
2021/08/25 23:38:41;;;;;;;39.85;15.35;;;;;;;11.35;73.05;98307.03;2109690;84;21030;-64
2021/08/25 23:41:41;;;;;;;36.73;14.38;;;;;;;11.35;73.19;98306.17;2109311;84;21097;-64
2021/08/25 23:44:41;;;;;;;36.68;13.38;;;;;;;11.36;73.13;98303.92;2109650;83;21019;-63
2021/08/25 23:47:42;;;;;;;35.88;13.18;;;;;;;11.37;73.09;98299.05;2109456;84;21525;-64
2021/08/25 23:50:42;;;;;;;34.60;13.18;;;;;;;11.39;73.08;98299.76;2109246;84;21037;-65
2021/08/25 23:53:43;;;;;;;37.10;14.10;;;;;;;11.44;72.89;98288.45;2109467;84;21015;-64
2021/08/25 23:56:44;;;;;;;33.88;14.55;;;;;;;11.48;72.67;98293.85;2109971;83;20998;-64
2021/08/25 23:59:44;;;;;;;35.05;13.55;;;;;;;11.51;72.66;98289.69;2109481;84;20999;-64
